sensor_id;sensor_type;location;lat;lon;timestamp;P1;durP1;ratioP1;P2;durP2;ratioP2
32236;SDS011;18726;44.732;10.550;2022-08-19T00:02:10;12.18;;;10.07;;
32236;SDS011;18726;44.732;10.550;2022-08-19T00:05:14;13.70;;;10.00;;
32236;SDS011;18726;44.732;10.550;2022-08-19T00:08:19;9.23;;;8.30;;
32236;SDS011;18726;44.732;10.550;2022-08-19T00:11:22;6.30;;;5.70;;
32236;SDS011;18726;44.732;10.550;2022-08-19T00:14:28;9.82;;;8.95;;
32236;SDS011;18726;44.732;10.550;2022-08-19T00:17:34;8.45;;;7.65;;
32236;SDS011;18726;44.732;10.550;2022-08-19T00:20:37;9.73;;;8.73;;
32236;SDS011;18726;44.732;10.550;2022-08-19T00:23:43;8.63;;;6.85;;
32236;SDS011;18726;44.732;10.550;2022-08-19T00:26:47;7.32;;;6.68;;
32236;SDS011;18726;44.732;10.550;2022-08-19T00:29:51;7.72;;;6.72;;
32236;SDS011;18726;44.732;10.550;2022-08-19T00:32:54;7.00;;;6.32;;
32236;SDS011;18726;44.732;10.550;2022-08-19T00:35:58;7.03;;;6.32;;
32236;SDS011;18726;44.732;10.550;2022-08-19T00:39:07;5.70;;;5.20;;
32236;SDS011;18726;44.732;10.550;2022-08-19T00:42:12;7.28;;;5.00;;
32236;SDS011;18726;44.732;10.550;2022-08-19T00:45:20;7.05;;;6.45;;
32236;SDS011;18726;44.732;10.550;2022-08-19T00:48:25;6.75;;;6.15;;
32236;SDS011;18726;44.732;10.550;2022-08-19T00:51:30;10.35;;;9.35;;
32236;SDS011;18726;44.732;10.550;2022-08-19T00:54:36;6.70;;;5.75;;
32236;SDS011;18726;44.732;10.550;2022-08-19T00:57:42;11.30;;;10.07;;
32236;SDS011;18726;44.732;10.550;2022-08-19T01:00:49;9.20;;;8.40;;
32236;SDS011;18726;44.732;10.550;2022-08-19T01:03:53;14.00;;;12.43;;
32236;SDS011;18726;44.732;10.550;2022-08-19T04:26:13;4.80;;;3.20;;
32236;SDS011;18726;44.732;10.550;2022-08-19T04:29:20;4.45;;;2.80;;
32236;SDS011;18726;44.732;10.550;2022-08-19T04:32:27;2.72;;;2.40;;
32236;SDS011;18726;44.732;10.550;2022-08-19T04:35:35;4.05;;;2.65;;
32236;SDS011;18726;44.732;10.550;2022-08-19T04:38:47;3.90;;;3.17;;
32236;SDS011;18726;44.732;10.550;2022-08-19T04:41:51;6.53;;;4.00;;
32236;SDS011;18726;44.732;10.550;2022-08-19T04:45:14;6.50;;;3.50;;
32236;SDS011;18726;44.732;10.550;2022-08-19T04:48:18;4.18;;;3.50;;
32236;SDS011;18726;44.732;10.550;2022-08-19T04:51:29;8.32;;;3.33;;
32236;SDS011;18726;44.732;10.550;2022-08-19T04:54:34;5.28;;;3.25;;
32236;SDS011;18726;44.732;10.550;2022-08-19T04:57:38;3.75;;;2.80;;
32236;SDS011;18726;44.732;10.550;2022-08-19T05:00:44;2.75;;;2.45;;
32236;SDS011;18726;44.732;10.550;2022-08-19T05:03:49;3.13;;;2.78;;
32236;SDS011;18726;44.732;10.550;2022-08-19T05:06:52;4.88;;;2.53;;
32236;SDS011;18726;44.732;10.550;2022-08-19T05:09:57;4.05;;;2.58;;
32236;SDS011;18726;44.732;10.550;2022-08-19T05:13:01;4.82;;;2.38;;
32236;SDS011;18726;44.732;10.550;2022-08-19T05:16:04;4.78;;;2.63;;
32236;SDS011;18726;44.732;10.550;2022-08-19T05:19:08;3.67;;;2.70;;
32236;SDS011;18726;44.732;10.550;2022-08-19T05:22:31;3.90;;;2.70;;
32236;SDS011;18726;44.732;10.550;2022-08-19T05:25:38;5.80;;;2.50;;
32236;SDS011;18726;44.732;10.550;2022-08-19T05:28:43;5.03;;;2.83;;
32236;SDS011;18726;44.732;10.550;2022-08-19T05:31:47;2.33;;;2.13;;
32236;SDS011;18726;44.732;10.550;2022-08-19T05:34:52;2.58;;;2.22;;
32236;SDS011;18726;44.732;10.550;2022-08-19T05:37:56;3.08;;;2.28;;
32236;SDS011;18726;44.732;10.550;2022-08-19T05:41:09;4.50;;;2.60;;
32236;SDS011;18726;44.732;10.550;2022-08-19T05:44:14;2.55;;;2.15;;
32236;SDS011;18726;44.732;10.550;2022-08-19T05:47:20;2.17;;;1.70;;
32236;SDS011;18726;44.732;10.550;2022-08-19T05:50:24;2.42;;;1.70;;
32236;SDS011;18726;44.732;10.550;2022-08-19T05:53:29;2.92;;;1.80;;
32236;SDS011;18726;44.732;10.550;2022-08-19T05:56:32;1.92;;;1.67;;
32236;SDS011;18726;44.732;10.550;2022-08-19T05:59:38;2.17;;;1.60;;
32236;SDS011;18726;44.732;10.550;2022-08-19T06:02:41;2.40;;;1.95;;
32236;SDS011;18726;44.732;10.550;2022-08-19T06:05:45;1.88;;;1.77;;
32236;SDS011;18726;44.732;10.550;2022-08-19T06:08:49;1.98;;;1.88;;
32236;SDS011;18726;44.732;10.550;2022-08-19T06:11:54;3.25;;;1.95;;
32236;SDS011;18726;44.732;10.550;2022-08-19T06:15:04;3.53;;;2.20;;
32236;SDS011;18726;44.732;10.550;2022-08-19T06:18:10;2.60;;;2.40;;
32236;SDS011;18726;44.732;10.550;2022-08-19T06:21:13;2.08;;;1.88;;
32236;SDS011;18726;44.732;10.550;2022-08-19T06:24:18;2.47;;;1.95;;
32236;SDS011;18726;44.732;10.550;2022-08-19T06:27:27;2.88;;;2.10;;
32236;SDS011;18726;44.732;10.550;2022-08-19T06:30:32;3.60;;;2.30;;
32236;SDS011;18726;44.732;10.550;2022-08-19T06:33:36;2.22;;;2.03;;
32236;SDS011;18726;44.732;10.550;2022-08-19T06:36:41;3.53;;;2.20;;
32236;SDS011;18726;44.732;10.550;2022-08-19T06:39:47;3.35;;;2.17;;
32236;SDS011;18726;44.732;10.550;2022-08-19T06:42:52;2.67;;;2.47;;
32236;SDS011;18726;44.732;10.550;2022-08-19T06:45:56;3.50;;;1.90;;
32236;SDS011;18726;44.732;10.550;2022-08-19T06:49:00;2.35;;;2.00;;
32236;SDS011;18726;44.732;10.550;2022-08-19T06:52:04;2.25;;;1.83;;
32236;SDS011;18726;44.732;10.550;2022-08-19T06:55:08;2.33;;;2.10;;
32236;SDS011;18726;44.732;10.550;2022-08-19T06:58:12;5.95;;;2.22;;
32236;SDS011;18726;44.732;10.550;2022-08-19T07:01:17;3.25;;;2.30;;
32236;SDS011;18726;44.732;10.550;2022-08-19T07:04:23;3.60;;;2.28;;
32236;SDS011;18726;44.732;10.550;2022-08-19T07:07:32;3.83;;;2.70;;
32236;SDS011;18726;44.732;10.550;2022-08-19T07:10:37;3.67;;;2.63;;
32236;SDS011;18726;44.732;10.550;2022-08-19T07:13:45;2.92;;;2.40;;
32236;SDS011;18726;44.732;10.550;2022-08-19T07:16:49;3.58;;;2.40;;
32236;SDS011;18726;44.732;10.550;2022-08-19T07:19:55;2.50;;;2.20;;
32236;SDS011;18726;44.732;10.550;2022-08-19T07:22:59;2.17;;;1.98;;
32236;SDS011;18726;44.732;10.550;2022-08-19T07:26:06;2.55;;;1.52;;
32236;SDS011;18726;44.732;10.550;2022-08-19T07:29:12;4.47;;;1.50;;
32236;SDS011;18726;44.732;10.550;2022-08-19T07:32:16;3.33;;;1.90;;
32236;SDS011;18726;44.732;10.550;2022-08-19T07:35:19;2.63;;;1.58;;
32236;SDS011;18726;44.732;10.550;2022-08-19T07:38:23;1.83;;;1.70;;
32236;SDS011;18726;44.732;10.550;2022-08-19T07:41:28;2.63;;;1.83;;
32236;SDS011;18726;44.732;10.550;2022-08-19T07:44:33;1.85;;;1.70;;
32236;SDS011;18726;44.732;10.550;2022-08-19T07:47:38;1.90;;;1.60;;
32236;SDS011;18726;44.732;10.550;2022-08-19T07:50:43;2.03;;;1.60;;
32236;SDS011;18726;44.732;10.550;2022-08-19T07:53:47;1.52;;;1.42;;
32236;SDS011;18726;44.732;10.550;2022-08-19T07:56:53;1.30;;;1.20;;
32236;SDS011;18726;44.732;10.550;2022-08-19T07:59:58;3.45;;;1.35;;
32236;SDS011;18726;44.732;10.550;2022-08-19T08:03:02;1.40;;;1.30;;
32236;SDS011;18726;44.732;10.550;2022-08-19T08:06:06;1.38;;;1.27;;
32236;SDS011;18726;44.732;10.550;2022-08-19T08:09:33;1.33;;;1.23;;
32236;SDS011;18726;44.732;10.550;2022-08-19T08:12:39;6.63;;;1.20;;
32236;SDS011;18726;44.732;10.550;2022-08-19T08:15:44;1.38;;;1.30;;
32236;SDS011;18726;44.732;10.550;2022-08-19T08:18:47;1.30;;;1.20;;
32236;SDS011;18726;44.732;10.550;2022-08-19T08:21:51;1.45;;;1.30;;
32236;SDS011;18726;44.732;10.550;2022-08-19T08:24:59;1.67;;;1.30;;
32236;SDS011;18726;44.732;10.550;2022-08-19T08:28:05;2.38;;;1.25;;
32236;SDS011;18726;44.732;10.550;2022-08-19T08:31:10;1.60;;;1.10;;
32236;SDS011;18726;44.732;10.550;2022-08-19T08:34:14;1.50;;;1.02;;
32236;SDS011;18726;44.732;10.550;2022-08-19T08:37:18;1.13;;;1.05;;
32236;SDS011;18726;44.732;10.550;2022-08-19T08:43:28;0.90;;;0.80;;
32236;SDS011;18726;44.732;10.550;2022-08-19T08:46:48;1.92;;;1.00;;
32236;SDS011;18726;44.732;10.550;2022-08-19T08:49:58;2.70;;;0.90;;
32236;SDS011;18726;44.732;10.550;2022-08-19T08:53:07;0.77;;;0.77;;
32236;SDS011;18726;44.732;10.550;2022-08-19T08:56:11;2.83;;;0.93;;
32236;SDS011;18726;44.732;10.550;2022-08-19T08:59:38;0.70;;;0.52;;
32236;SDS011;18726;44.732;10.550;2022-08-19T09:02:42;0.80;;;0.75;;
32236;SDS011;18726;44.732;10.550;2022-08-19T09:12:16;1.38;;;0.88;;
32236;SDS011;18726;44.732;10.550;2022-08-19T09:15:32;0.90;;;0.90;;
32236;SDS011;18726;44.732;10.550;2022-08-19T09:21:44;1.08;;;0.88;;
32236;SDS011;18726;44.732;10.550;2022-08-19T09:24:49;1.05;;;1.00;;
32236;SDS011;18726;44.732;10.550;2022-08-19T09:27:55;0.88;;;0.88;;
32236;SDS011;18726;44.732;10.550;2022-08-19T09:30:59;1.70;;;0.90;;
32236;SDS011;18726;44.732;10.550;2022-08-19T09:34:03;1.08;;;0.93;;
32236;SDS011;18726;44.732;10.550;2022-08-19T09:37:09;1.75;;;0.80;;
32236;SDS011;18726;44.732;10.550;2022-08-19T09:40:13;1.05;;;0.90;;
32236;SDS011;18726;44.732;10.550;2022-08-19T09:43:17;1.25;;;0.85;;
32236;SDS011;18726;44.732;10.550;2022-08-19T09:46:21;1.48;;;0.98;;
32236;SDS011;18726;44.732;10.550;2022-08-19T09:49:27;1.77;;;1.20;;
32236;SDS011;18726;44.732;10.550;2022-08-19T09:52:31;2.00;;;0.75;;
32236;SDS011;18726;44.732;10.550;2022-08-19T09:55:35;1.15;;;0.80;;
32236;SDS011;18726;44.732;10.550;2022-08-19T09:58:45;1.95;;;0.90;;
32236;SDS011;18726;44.732;10.550;2022-08-19T10:01:49;1.40;;;0.90;;
32236;SDS011;18726;44.732;10.550;2022-08-19T10:04:54;2.25;;;0.82;;
32236;SDS011;18726;44.732;10.550;2022-08-19T10:08:18;1.65;;;0.77;;
32236;SDS011;18726;44.732;10.550;2022-08-19T10:11:25;1.20;;;0.90;;
32236;SDS011;18726;44.732;10.550;2022-08-19T10:14:29;1.67;;;1.00;;
32236;SDS011;18726;44.732;10.550;2022-08-19T10:17:34;1.67;;;0.82;;
32236;SDS011;18726;44.732;10.550;2022-08-19T10:20:38;1.65;;;0.73;;
32236;SDS011;18726;44.732;10.550;2022-08-19T10:23:43;3.28;;;1.05;;
32236;SDS011;18726;44.732;10.550;2022-08-19T10:26:49;2.97;;;1.00;;
32236;SDS011;18726;44.732;10.550;2022-08-19T10:29:53;1.13;;;0.75;;
32236;SDS011;18726;44.732;10.550;2022-08-19T10:32:57;0.88;;;0.75;;
32236;SDS011;18726;44.732;10.550;2022-08-19T10:36:02;2.42;;;1.10;;
32236;SDS011;18726;44.732;10.550;2022-08-19T10:39:11;3.38;;;1.05;;
32236;SDS011;18726;44.732;10.550;2022-08-19T10:42:15;1.88;;;1.00;;
32236;SDS011;18726;44.732;10.550;2022-08-19T10:45:22;4.70;;;1.00;;
32236;SDS011;18726;44.732;10.550;2022-08-19T10:48:29;1.95;;;1.00;;
32236;SDS011;18726;44.732;10.550;2022-08-19T10:51:32;2.08;;;0.80;;
32236;SDS011;18726;44.732;10.550;2022-08-19T10:54:54;2.50;;;0.88;;
32236;SDS011;18726;44.732;10.550;2022-08-19T10:58:17;6.00;;;1.58;;
32236;SDS011;18726;44.732;10.550;2022-08-19T11:01:26;5.65;;;1.60;;
32236;SDS011;18726;44.732;10.550;2022-08-19T11:04:33;5.43;;;1.45;;
32236;SDS011;18726;44.732;10.550;2022-08-19T11:07:40;1.35;;;1.13;;
32236;SDS011;18726;44.732;10.550;2022-08-19T11:10:45;3.75;;;1.30;;
32236;SDS011;18726;44.732;10.550;2022-08-19T11:13:49;0.85;;;0.73;;
32236;SDS011;18726;44.732;10.550;2022-08-19T11:16:53;4.35;;;1.00;;
32236;SDS011;18726;44.732;10.550;2022-08-19T11:19:59;1.23;;;0.77;;
32236;SDS011;18726;44.732;10.550;2022-08-19T11:23:06;1.10;;;0.80;;
32236;SDS011;18726;44.732;10.550;2022-08-19T11:26:10;4.15;;;1.20;;
32236;SDS011;18726;44.732;10.550;2022-08-19T11:29:15;1.77;;;0.90;;
32236;SDS011;18726;44.732;10.550;2022-08-19T11:32:20;1.25;;;0.98;;
32236;SDS011;18726;44.732;10.550;2022-08-19T11:35:24;0.93;;;0.77;;
32236;SDS011;18726;44.732;10.550;2022-08-19T11:38:27;1.15;;;0.73;;
32236;SDS011;18726;44.732;10.550;2022-08-19T11:41:31;1.40;;;1.02;;
32236;SDS011;18726;44.732;10.550;2022-08-19T11:44:35;1.40;;;0.93;;
32236;SDS011;18726;44.732;10.550;2022-08-19T11:47:38;1.50;;;0.85;;
32236;SDS011;18726;44.732;10.550;2022-08-19T11:50:42;0.70;;;0.60;;
32236;SDS011;18726;44.732;10.550;2022-08-19T11:53:46;4.00;;;1.10;;
32236;SDS011;18726;44.732;10.550;2022-08-19T11:56:50;4.70;;;1.00;;
32236;SDS011;18726;44.732;10.550;2022-08-19T11:59:54;1.27;;;0.68;;
32236;SDS011;18726;44.732;10.550;2022-08-19T12:02:58;2.45;;;0.70;;
32236;SDS011;18726;44.732;10.550;2022-08-19T12:06:05;1.65;;;0.73;;
32236;SDS011;18726;44.732;10.550;2022-08-19T12:09:10;1.15;;;0.73;;
32236;SDS011;18726;44.732;10.550;2022-08-19T12:12:14;1.42;;;0.88;;
32236;SDS011;18726;44.732;10.550;2022-08-19T12:15:17;3.03;;;0.85;;
32236;SDS011;18726;44.732;10.550;2022-08-19T12:18:21;1.60;;;0.90;;
32236;SDS011;18726;44.732;10.550;2022-08-19T12:21:26;3.33;;;1.05;;
32236;SDS011;18726;44.732;10.550;2022-08-19T12:24:33;1.13;;;0.85;;
32236;SDS011;18726;44.732;10.550;2022-08-19T12:27:38;2.72;;;1.05;;
32236;SDS011;18726;44.732;10.550;2022-08-19T12:30:42;2.80;;;0.98;;
32236;SDS011;18726;44.732;10.550;2022-08-19T12:33:46;2.17;;;1.13;;
32236;SDS011;18726;44.732;10.550;2022-08-19T12:36:50;1.80;;;0.77;;
32236;SDS011;18726;44.732;10.550;2022-08-19T12:39:54;1.13;;;0.93;;
32236;SDS011;18726;44.732;10.550;2022-08-19T12:42:57;0.70;;;0.70;;
32236;SDS011;18726;44.732;10.550;2022-08-19T12:46:01;1.30;;;0.75;;
32236;SDS011;18726;44.732;10.550;2022-08-19T12:49:07;1.15;;;1.00;;
32236;SDS011;18726;44.732;10.550;2022-08-19T12:52:10;1.05;;;0.68;;
32236;SDS011;18726;44.732;10.550;2022-08-19T12:55:18;1.25;;;0.90;;
32236;SDS011;18726;44.732;10.550;2022-08-19T12:58:22;0.90;;;0.70;;
32236;SDS011;18726;44.732;10.550;2022-08-19T13:01:26;2.60;;;0.90;;
32236;SDS011;18726;44.732;10.550;2022-08-19T13:04:35;2.25;;;0.90;;
32236;SDS011;18726;44.732;10.550;2022-08-19T13:07:44;1.55;;;0.90;;
32236;SDS011;18726;44.732;10.550;2022-08-19T13:10:51;1.40;;;0.85;;
32236;SDS011;18726;44.732;10.550;2022-08-19T13:13:57;3.30;;;0.90;;
32236;SDS011;18726;44.732;10.550;2022-08-19T13:17:02;3.67;;;1.00;;
32236;SDS011;18726;44.732;10.550;2022-08-19T13:20:12;0.70;;;0.70;;
32236;SDS011;18726;44.732;10.550;2022-08-19T13:23:19;0.68;;;0.60;;
32236;SDS011;18726;44.732;10.550;2022-08-19T13:26:23;0.98;;;0.85;;
32236;SDS011;18726;44.732;10.550;2022-08-19T13:29:27;1.13;;;0.88;;
32236;SDS011;18726;44.732;10.550;2022-08-19T13:32:49;0.80;;;0.80;;
32236;SDS011;18726;44.732;10.550;2022-08-19T13:36:12;3.45;;;1.00;;
32236;SDS011;18726;44.732;10.550;2022-08-19T13:39:15;0.98;;;0.90;;
32236;SDS011;18726;44.732;10.550;2022-08-19T13:42:19;3.35;;;1.02;;
32236;SDS011;18726;44.732;10.550;2022-08-19T13:45:24;1.65;;;1.25;;
32236;SDS011;18726;44.732;10.550;2022-08-19T13:48:29;2.70;;;0.90;;
32236;SDS011;18726;44.732;10.550;2022-08-19T13:51:34;3.95;;;0.98;;
32236;SDS011;18726;44.732;10.550;2022-08-19T13:54:38;1.70;;;0.90;;
32236;SDS011;18726;44.732;10.550;2022-08-19T13:57:41;0.85;;;0.70;;
32236;SDS011;18726;44.732;10.550;2022-08-19T14:00:46;1.90;;;1.05;;
32236;SDS011;18726;44.732;10.550;2022-08-19T14:03:50;2.42;;;0.95;;
32236;SDS011;18726;44.732;10.550;2022-08-19T14:06:56;1.13;;;0.75;;
32236;SDS011;18726;44.732;10.550;2022-08-19T14:10:15;1.33;;;1.00;;
32236;SDS011;18726;44.732;10.550;2022-08-19T14:13:21;0.95;;;0.90;;
32236;SDS011;18726;44.732;10.550;2022-08-19T14:16:26;1.08;;;0.70;;
32236;SDS011;18726;44.732;10.550;2022-08-19T14:19:31;0.80;;;0.80;;
32236;SDS011;18726;44.732;10.550;2022-08-19T14:22:38;1.63;;;0.70;;
32236;SDS011;18726;44.732;10.550;2022-08-19T14:25:46;1.27;;;0.98;;
32236;SDS011;18726;44.732;10.550;2022-08-19T14:28:49;1.35;;;0.93;;
32236;SDS011;18726;44.732;10.550;2022-08-19T14:31:53;0.75;;;0.75;;
32236;SDS011;18726;44.732;10.550;2022-08-19T14:34:57;1.67;;;1.05;;
32236;SDS011;18726;44.732;10.550;2022-08-19T14:38:04;1.15;;;1.08;;
32236;SDS011;18726;44.732;10.550;2022-08-19T14:41:11;1.67;;;1.05;;
32236;SDS011;18726;44.732;10.550;2022-08-19T14:44:26;1.00;;;1.00;;
32236;SDS011;18726;44.732;10.550;2022-08-19T14:47:30;0.80;;;0.80;;
32236;SDS011;18726;44.732;10.550;2022-08-19T14:50:34;1.30;;;0.95;;
32236;SDS011;18726;44.732;10.550;2022-08-19T14:53:39;1.08;;;1.00;;
32236;SDS011;18726;44.732;10.550;2022-08-19T14:56:44;2.17;;;0.98;;
32236;SDS011;18726;44.732;10.550;2022-08-19T14:59:48;1.63;;;0.85;;
32236;SDS011;18726;44.732;10.550;2022-08-19T15:02:52;2.92;;;1.08;;
32236;SDS011;18726;44.732;10.550;2022-08-19T15:05:57;2.70;;;1.50;;
32236;SDS011;18726;44.732;10.550;2022-08-19T15:09:02;3.22;;;1.40;;
32236;SDS011;18726;44.732;10.550;2022-08-19T15:12:06;1.25;;;1.10;;
32236;SDS011;18726;44.732;10.550;2022-08-19T15:15:11;1.25;;;1.08;;
32236;SDS011;18726;44.732;10.550;2022-08-19T15:18:16;0.98;;;0.88;;
32236;SDS011;18726;44.732;10.550;2022-08-19T15:21:20;2.45;;;0.85;;
32236;SDS011;18726;44.732;10.550;2022-08-19T15:24:25;1.42;;;0.80;;
32236;SDS011;18726;44.732;10.550;2022-08-19T15:27:28;1.08;;;0.70;;
32236;SDS011;18726;44.732;10.550;2022-08-19T15:30:32;2.47;;;1.30;;
32236;SDS011;18726;44.732;10.550;2022-08-19T15:33:36;3.15;;;1.13;;
32236;SDS011;18726;44.732;10.550;2022-08-19T15:36:40;4.10;;;1.10;;
32236;SDS011;18726;44.732;10.550;2022-08-19T15:39:43;3.33;;;1.52;;
32236;SDS011;18726;44.732;10.550;2022-08-19T15:42:48;3.00;;;1.20;;
32236;SDS011;18726;44.732;10.550;2022-08-19T15:45:52;1.70;;;1.23;;
32236;SDS011;18726;44.732;10.550;2022-08-19T15:48:56;1.95;;;1.00;;
32236;SDS011;18726;44.732;10.550;2022-08-19T15:52:00;1.50;;;1.40;;
32236;SDS011;18726;44.732;10.550;2022-08-19T15:55:04;1.38;;;1.27;;
32236;SDS011;18726;44.732;10.550;2022-08-19T15:58:11;1.73;;;1.52;;
32236;SDS011;18726;44.732;10.550;2022-08-19T16:01:34;1.90;;;1.10;;
32236;SDS011;18726;44.732;10.550;2022-08-19T16:04:57;1.70;;;1.17;;
32236;SDS011;18726;44.732;10.550;2022-08-19T16:08:19;1.83;;;1.50;;
32236;SDS011;18726;44.732;10.550;2022-08-19T16:11:25;1.33;;;1.20;;
32236;SDS011;18726;44.732;10.550;2022-08-19T16:14:33;2.20;;;1.30;;
32236;SDS011;18726;44.732;10.550;2022-08-19T16:17:37;2.42;;;1.20;;
32236;SDS011;18726;44.732;10.550;2022-08-19T16:20:42;1.98;;;1.15;;
32236;SDS011;18726;44.732;10.550;2022-08-19T16:23:49;2.35;;;1.23;;
32236;SDS011;18726;44.732;10.550;2022-08-19T16:26:52;1.02;;;1.00;;
32236;SDS011;18726;44.732;10.550;2022-08-19T16:29:56;1.05;;;1.00;;
32236;SDS011;18726;44.732;10.550;2022-08-19T16:33:00;1.30;;;1.20;;
32236;SDS011;18726;44.732;10.550;2022-08-19T16:36:04;1.08;;;0.98;;
32236;SDS011;18726;44.732;10.550;2022-08-19T16:39:09;1.42;;;1.20;;
32236;SDS011;18726;44.732;10.550;2022-08-19T16:42:14;1.88;;;1.40;;
32236;SDS011;18726;44.732;10.550;2022-08-19T16:45:18;1.45;;;1.20;;
32236;SDS011;18726;44.732;10.550;2022-08-19T16:48:25;2.15;;;1.20;;
32236;SDS011;18726;44.732;10.550;2022-08-19T16:51:33;1.58;;;1.15;;
32236;SDS011;18726;44.732;10.550;2022-08-19T16:54:36;1.20;;;1.10;;
32236;SDS011;18726;44.732;10.550;2022-08-19T16:57:40;2.35;;;1.20;;
32236;SDS011;18726;44.732;10.550;2022-08-19T17:00:45;0.90;;;0.90;;
32236;SDS011;18726;44.732;10.550;2022-08-19T17:03:50;3.08;;;1.33;;
32236;SDS011;18726;44.732;10.550;2022-08-19T17:06:55;1.40;;;1.08;;
32236;SDS011;18726;44.732;10.550;2022-08-19T17:09:59;1.30;;;1.10;;
32236;SDS011;18726;44.732;10.550;2022-08-19T17:13:03;3.22;;;1.67;;
32236;SDS011;18726;44.732;10.550;2022-08-19T17:16:11;1.73;;;1.20;;
32236;SDS011;18726;44.732;10.550;2022-08-19T17:19:16;1.23;;;1.13;;
32236;SDS011;18726;44.732;10.550;2022-08-19T17:22:20;1.35;;;1.20;;
32236;SDS011;18726;44.732;10.550;2022-08-19T17:25:24;1.20;;;1.10;;
32236;SDS011;18726;44.732;10.550;2022-08-19T17:28:30;1.25;;;1.15;;
32236;SDS011;18726;44.732;10.550;2022-08-19T17:31:35;2.05;;;1.25;;
32236;SDS011;18726;44.732;10.550;2022-08-19T17:34:39;1.83;;;1.63;;
32236;SDS011;18726;44.732;10.550;2022-08-19T17:37:43;3.05;;;1.70;;
32236;SDS011;18726;44.732;10.550;2022-08-19T17:40:47;5.70;;;1.75;;
32236;SDS011;18726;44.732;10.550;2022-08-19T17:43:51;2.00;;;1.70;;
32236;SDS011;18726;44.732;10.550;2022-08-19T17:46:55;2.42;;;1.90;;
32236;SDS011;18726;44.732;10.550;2022-08-19T17:49:58;2.30;;;2.10;;
32236;SDS011;18726;44.732;10.550;2022-08-19T17:53:02;6.75;;;1.55;;
32236;SDS011;18726;44.732;10.550;2022-08-19T17:56:06;2.22;;;1.85;;
32236;SDS011;18726;44.732;10.550;2022-08-19T17:59:10;2.97;;;1.45;;
32236;SDS011;18726;44.732;10.550;2022-08-19T18:02:14;2.15;;;1.70;;
32236;SDS011;18726;44.732;10.550;2022-08-19T18:05:19;2.80;;;1.88;;
32236;SDS011;18726;44.732;10.550;2022-08-19T18:08:27;2.33;;;2.05;;
32236;SDS011;18726;44.732;10.550;2022-08-19T18:11:31;1.70;;;1.60;;
32236;SDS011;18726;44.732;10.550;2022-08-19T18:14:36;2.67;;;2.20;;
32236;SDS011;18726;44.732;10.550;2022-08-19T18:17:41;1.60;;;1.48;;
32236;SDS011;18726;44.732;10.550;2022-08-19T18:20:45;2.00;;;1.80;;
32236;SDS011;18726;44.732;10.550;2022-08-19T18:23:48;2.35;;;2.15;;
32236;SDS011;18726;44.732;10.550;2022-08-19T18:26:52;2.17;;;1.98;;
32236;SDS011;18726;44.732;10.550;2022-08-19T18:29:55;3.33;;;2.63;;
32236;SDS011;18726;44.732;10.550;2022-08-19T18:33:02;3.40;;;3.10;;
32236;SDS011;18726;44.732;10.550;2022-08-19T18:36:11;2.75;;;2.55;;
32236;SDS011;18726;44.732;10.550;2022-08-19T18:39:15;2.35;;;2.15;;
32236;SDS011;18726;44.732;10.550;2022-08-19T18:42:42;3.35;;;3.08;;
32236;SDS011;18726;44.732;10.550;2022-08-19T18:46:06;2.67;;;2.42;;
32236;SDS011;18726;44.732;10.550;2022-08-19T18:49:29;2.67;;;2.47;;
32236;SDS011;18726;44.732;10.550;2022-08-19T18:52:35;3.90;;;3.55;;
32236;SDS011;18726;44.732;10.550;2022-08-19T18:55:39;3.67;;;3.35;;
32236;SDS011;18726;44.732;10.550;2022-08-19T18:58:43;6.75;;;4.28;;
32236;SDS011;18726;44.732;10.550;2022-08-19T19:01:46;4.10;;;3.80;;
32236;SDS011;18726;44.732;10.550;2022-08-19T19:04:53;5.63;;;4.47;;
32236;SDS011;18726;44.732;10.550;2022-08-19T19:07:59;3.80;;;3.50;;
32236;SDS011;18726;44.732;10.550;2022-08-19T19:11:03;6.07;;;3.15;;
32236;SDS011;18726;44.732;10.550;2022-08-19T19:14:09;4.78;;;4.28;;
32236;SDS011;18726;44.732;10.550;2022-08-19T19:17:15;6.72;;;4.88;;
32236;SDS011;18726;44.732;10.550;2022-08-19T19:20:19;4.55;;;3.88;;
32236;SDS011;18726;44.732;10.550;2022-08-19T19:23:23;4.20;;;3.83;;
32236;SDS011;18726;44.732;10.550;2022-08-19T19:26:27;5.78;;;5.28;;
32236;SDS011;18726;44.732;10.550;2022-08-19T19:29:31;6.90;;;5.78;;
32236;SDS011;18726;44.732;10.550;2022-08-19T19:32:37;6.35;;;5.78;;
32236;SDS011;18726;44.732;10.550;2022-08-19T19:35:42;6.95;;;6.22;;
32236;SDS011;18726;44.732;10.550;2022-08-19T19:38:48;7.35;;;6.28;;
32236;SDS011;18726;44.732;10.550;2022-08-19T19:41:52;7.93;;;6.03;;
32236;SDS011;18726;44.732;10.550;2022-08-19T19:44:55;9.05;;;6.18;;
32236;SDS011;18726;44.732;10.550;2022-08-19T19:47:59;7.60;;;6.55;;
32236;SDS011;18726;44.732;10.550;2022-08-19T19:51:03;7.00;;;6.38;;
32236;SDS011;18726;44.732;10.550;2022-08-19T19:54:11;7.80;;;7.10;;
32236;SDS011;18726;44.732;10.550;2022-08-19T19:57:15;8.65;;;6.38;;
32236;SDS011;18726;44.732;10.550;2022-08-19T20:00:19;8.23;;;6.50;;
32236;SDS011;18726;44.732;10.550;2022-08-19T20:03:24;7.07;;;6.38;;
32236;SDS011;18726;44.732;10.550;2022-08-19T20:06:29;6.25;;;5.55;;
32236;SDS011;18726;44.732;10.550;2022-08-19T20:12:50;5.55;;;5.05;;
32236;SDS011;18726;44.732;10.550;2022-08-19T20:15:57;4.47;;;4.07;;
32236;SDS011;18726;44.732;10.550;2022-08-19T20:19:01;4.93;;;4.22;;
32236;SDS011;18726;44.732;10.550;2022-08-19T20:23:17;4.18;;;3.78;;
32236;SDS011;18726;44.732;10.550;2022-08-19T20:26:26;4.82;;;3.95;;
32236;SDS011;18726;44.732;10.550;2022-08-19T20:43:11;3.55;;;3.17;;
32236;SDS011;18726;44.732;10.550;2022-08-19T20:46:18;3.65;;;2.88;;
32236;SDS011;18726;44.732;10.550;2022-08-19T20:49:25;5.35;;;3.30;;
32236;SDS011;18726;44.732;10.550;2022-08-19T20:52:30;4.88;;;3.05;;
32236;SDS011;18726;44.732;10.550;2022-08-19T20:59:45;3.27;;;2.53;;
32236;SDS011;18726;44.732;10.550;2022-08-19T21:03:12;3.45;;;2.38;;
32236;SDS011;18726;44.732;10.550;2022-08-19T21:06:56;4.35;;;2.60;;
32236;SDS011;18726;44.732;10.550;2022-08-19T21:09:59;2.83;;;2.63;;
32236;SDS011;18726;44.732;10.550;2022-08-19T21:13:19;2.60;;;2.40;;
32236;SDS011;18726;44.732;10.550;2022-08-19T21:16:24;2.30;;;2.10;;
32236;SDS011;18726;44.732;10.550;2022-08-19T21:23:23;2.33;;;1.90;;
32236;SDS011;18726;44.732;10.550;2022-08-19T21:26:40;2.70;;;2.50;;
32236;SDS011;18726;44.732;10.550;2022-08-19T21:34:42;2.45;;;2.25;;
32236;SDS011;18726;44.732;10.550;2022-08-19T21:37:46;5.07;;;2.50;;
32236;SDS011;18726;44.732;10.550;2022-08-19T21:40:49;2.83;;;2.53;;
32236;SDS011;18726;44.732;10.550;2022-08-19T21:43:53;4.70;;;2.60;;
32236;SDS011;18726;44.732;10.550;2022-08-19T21:46:57;3.20;;;2.55;;
32236;SDS011;18726;44.732;10.550;2022-08-19T22:02:31;3.92;;;2.05;;
32236;SDS011;18726;44.732;10.550;2022-08-19T22:23:44;4.45;;;2.78;;
32236;SDS011;18726;44.732;10.550;2022-08-19T22:31:06;5.40;;;2.78;;
32236;SDS011;18726;44.732;10.550;2022-08-19T22:35:30;4.65;;;2.17;;
32236;SDS011;18726;44.732;10.550;2022-08-19T22:43:43;2.47;;;2.25;;
32236;SDS011;18726;44.732;10.550;2022-08-19T23:16:04;4.35;;;2.22;;
